sensor_id;sensor_type;location;lat;lon;timestamp;P1;durP1;ratioP1;P2;durP2;ratioP2
61096;SDS011;46977;50.936;6.908;2023-10-13T00:02:47;6.65;;;4.40;;
61096;SDS011;46977;50.936;6.908;2023-10-13T00:05:50;5.95;;;4.30;;
61096;SDS011;46977;50.936;6.908;2023-10-13T00:08:54;5.32;;;4.00;;
61096;SDS011;46977;50.936;6.908;2023-10-13T00:11:57;7.93;;;4.78;;
61096;SDS011;46977;50.936;6.908;2023-10-13T00:15:01;6.50;;;4.32;;
61096;SDS011;46977;50.936;6.908;2023-10-13T00:18:06;5.53;;;4.20;;
61096;SDS011;46977;50.936;6.908;2023-10-13T00:21:14;5.15;;;4.22;;
61096;SDS011;46977;50.936;6.908;2023-10-13T00:24:33;4.85;;;3.90;;
61096;SDS011;46977;50.936;6.908;2023-10-13T00:27:44;6.40;;;4.37;;
61096;SDS011;46977;50.936;6.908;2023-10-13T00:30:48;6.75;;;4.20;;
61096;SDS011;46977;50.936;6.908;2023-10-13T00:33:54;6.10;;;4.00;;
61096;SDS011;46977;50.936;6.908;2023-10-13T00:37:03;7.78;;;4.57;;
61096;SDS011;46977;50.936;6.908;2023-10-13T00:40:21;9.07;;;4.57;;
61096;SDS011;46977;50.936;6.908;2023-10-13T00:43:32;5.97;;;3.88;;
61096;SDS011;46977;50.936;6.908;2023-10-13T00:46:37;6.07;;;3.85;;
61096;SDS011;46977;50.936;6.908;2023-10-13T00:49:40;9.15;;;4.72;;
61096;SDS011;46977;50.936;6.908;2023-10-13T00:52:43;5.10;;;4.45;;
61096;SDS011;46977;50.936;6.908;2023-10-13T00:55:48;5.78;;;4.95;;
61096;SDS011;46977;50.936;6.908;2023-10-13T00:58:51;6.65;;;4.82;;
61096;SDS011;46977;50.936;6.908;2023-10-13T01:01:55;5.75;;;4.65;;
61096;SDS011;46977;50.936;6.908;2023-10-13T01:04:58;6.82;;;5.60;;
61096;SDS011;46977;50.936;6.908;2023-10-13T01:08:01;8.90;;;5.55;;
61096;SDS011;46977;50.936;6.908;2023-10-13T01:11:03;4.85;;;4.18;;
61096;SDS011;46977;50.936;6.908;2023-10-13T01:14:09;8.70;;;4.95;;
61096;SDS011;46977;50.936;6.908;2023-10-13T01:17:14;5.43;;;4.88;;
61096;SDS011;46977;50.936;6.908;2023-10-13T01:20:16;11.82;;;5.53;;
61096;SDS011;46977;50.936;6.908;2023-10-13T01:23:29;6.88;;;4.32;;
61096;SDS011;46977;50.936;6.908;2023-10-13T01:26:39;10.35;;;5.35;;
61096;SDS011;46977;50.936;6.908;2023-10-13T01:29:44;6.97;;;4.90;;
61096;SDS011;46977;50.936;6.908;2023-10-13T01:32:57;7.70;;;5.00;;
61096;SDS011;46977;50.936;6.908;2023-10-13T01:36:02;7.22;;;5.32;;
61096;SDS011;46977;50.936;6.908;2023-10-13T01:39:10;9.88;;;6.15;;
61096;SDS011;46977;50.936;6.908;2023-10-13T01:42:12;11.80;;;5.18;;
61096;SDS011;46977;50.936;6.908;2023-10-13T01:45:21;8.27;;;5.53;;
61096;SDS011;46977;50.936;6.908;2023-10-13T01:48:30;6.55;;;5.43;;
61096;SDS011;46977;50.936;6.908;2023-10-13T01:51:40;8.77;;;4.93;;
61096;SDS011;46977;50.936;6.908;2023-10-13T01:54:44;8.15;;;5.70;;
61096;SDS011;46977;50.936;6.908;2023-10-13T01:57:46;8.30;;;5.40;;
61096;SDS011;46977;50.936;6.908;2023-10-13T02:00:50;10.88;;;5.07;;
61096;SDS011;46977;50.936;6.908;2023-10-13T02:03:52;6.38;;;5.18;;
61096;SDS011;46977;50.936;6.908;2023-10-13T02:07:04;8.38;;;5.80;;
61096;SDS011;46977;50.936;6.908;2023-10-13T02:10:12;7.18;;;5.47;;
61096;SDS011;46977;50.936;6.908;2023-10-13T02:13:17;7.65;;;5.65;;
61096;SDS011;46977;50.936;6.908;2023-10-13T02:16:20;7.22;;;5.13;;
61096;SDS011;46977;50.936;6.908;2023-10-13T02:19:24;11.93;;;5.75;;
61096;SDS011;46977;50.936;6.908;2023-10-13T02:22:29;10.63;;;5.47;;
61096;SDS011;46977;50.936;6.908;2023-10-13T02:25:35;10.27;;;6.20;;
61096;SDS011;46977;50.936;6.908;2023-10-13T02:28:44;7.10;;;5.88;;
61096;SDS011;46977;50.936;6.908;2023-10-13T02:31:52;9.10;;;6.10;;
61096;SDS011;46977;50.936;6.908;2023-10-13T02:34:59;7.00;;;6.10;;
61096;SDS011;46977;50.936;6.908;2023-10-13T02:38:08;11.77;;;6.65;;
61096;SDS011;46977;50.936;6.908;2023-10-13T02:41:15;11.07;;;6.13;;
61096;SDS011;46977;50.936;6.908;2023-10-13T02:44:42;11.48;;;6.63;;
61096;SDS011;46977;50.936;6.908;2023-10-13T02:47:48;10.90;;;6.65;;
61096;SDS011;46977;50.936;6.908;2023-10-13T02:51:10;10.65;;;6.45;;
61096;SDS011;46977;50.936;6.908;2023-10-13T02:54:19;10.18;;;6.68;;
61096;SDS011;46977;50.936;6.908;2023-10-13T02:57:24;13.15;;;6.60;;
61096;SDS011;46977;50.936;6.908;2023-10-13T03:00:27;10.75;;;6.00;;
61096;SDS011;46977;50.936;6.908;2023-10-13T03:03:34;9.27;;;6.30;;
61096;SDS011;46977;50.936;6.908;2023-10-13T03:06:36;10.13;;;6.70;;
61096;SDS011;46977;50.936;6.908;2023-10-13T03:09:42;9.35;;;5.80;;
61096;SDS011;46977;50.936;6.908;2023-10-13T03:12:53;6.85;;;5.47;;
61096;SDS011;46977;50.936;6.908;2023-10-13T03:15:57;8.50;;;6.38;;
61096;SDS011;46977;50.936;6.908;2023-10-13T03:18:59;8.82;;;6.63;;
61096;SDS011;46977;50.936;6.908;2023-10-13T03:22:02;9.40;;;5.75;;
61096;SDS011;46977;50.936;6.908;2023-10-13T03:25:14;9.10;;;6.28;;
61096;SDS011;46977;50.936;6.908;2023-10-13T03:31:54;9.65;;;5.82;;
61096;SDS011;46977;50.936;6.908;2023-10-13T03:35:09;8.80;;;5.97;;
61096;SDS011;46977;50.936;6.908;2023-10-13T03:38:27;9.73;;;6.07;;
61096;SDS011;46977;50.936;6.908;2023-10-13T03:41:29;8.20;;;5.68;;
61096;SDS011;46977;50.936;6.908;2023-10-13T03:44:33;10.02;;;5.82;;
61096;SDS011;46977;50.936;6.908;2023-10-13T03:47:40;10.23;;;6.72;;
61096;SDS011;46977;50.936;6.908;2023-10-13T03:50:47;9.43;;;5.57;;
61096;SDS011;46977;50.936;6.908;2023-10-13T03:53:59;9.10;;;5.35;;
61096;SDS011;46977;50.936;6.908;2023-10-13T03:57:09;10.73;;;5.95;;
61096;SDS011;46977;50.936;6.908;2023-10-13T04:00:16;11.65;;;6.03;;
61096;SDS011;46977;50.936;6.908;2023-10-13T04:03:25;9.93;;;6.87;;
61096;SDS011;46977;50.936;6.908;2023-10-13T04:06:35;9.13;;;5.95;;
61096;SDS011;46977;50.936;6.908;2023-10-13T04:09:46;11.10;;;6.53;;
61096;SDS011;46977;50.936;6.908;2023-10-13T04:12:48;8.70;;;5.80;;
61096;SDS011;46977;50.936;6.908;2023-10-13T04:16:10;10.00;;;6.80;;
61096;SDS011;46977;50.936;6.908;2023-10-13T04:19:25;6.80;;;5.80;;
61096;SDS011;46977;50.936;6.908;2023-10-13T04:22:31;10.50;;;6.22;;
61096;SDS011;46977;50.936;6.908;2023-10-13T04:25:51;8.27;;;6.55;;
61096;SDS011;46977;50.936;6.908;2023-10-13T04:29:09;13.32;;;6.22;;
61096;SDS011;46977;50.936;6.908;2023-10-13T04:32:30;8.07;;;6.57;;
61096;SDS011;46977;50.936;6.908;2023-10-13T04:35:40;8.95;;;6.65;;
61096;SDS011;46977;50.936;6.908;2023-10-13T04:38:50;10.25;;;6.28;;
61096;SDS011;46977;50.936;6.908;2023-10-13T04:42:08;11.10;;;6.45;;
61096;SDS011;46977;50.936;6.908;2023-10-13T04:45:28;8.52;;;6.00;;
61096;SDS011;46977;50.936;6.908;2023-10-13T04:48:34;10.95;;;6.32;;
61096;SDS011;46977;50.936;6.908;2023-10-13T04:51:43;9.95;;;5.72;;
61096;SDS011;46977;50.936;6.908;2023-10-13T04:54:55;8.52;;;6.35;;
61096;SDS011;46977;50.936;6.908;2023-10-13T04:58:01;10.07;;;5.70;;
61096;SDS011;46977;50.936;6.908;2023-10-13T05:01:16;7.53;;;6.30;;
61096;SDS011;46977;50.936;6.908;2023-10-13T05:04:29;9.05;;;5.88;;
61096;SDS011;46977;50.936;6.908;2023-10-13T05:07:41;10.00;;;6.50;;
61096;SDS011;46977;50.936;6.908;2023-10-13T05:14:23;8.80;;;6.50;;
61096;SDS011;46977;50.936;6.908;2023-10-13T05:17:45;11.85;;;5.93;;
61096;SDS011;46977;50.936;6.908;2023-10-13T05:21:09;10.38;;;6.88;;
61096;SDS011;46977;50.936;6.908;2023-10-13T05:24:30;8.30;;;6.45;;
61096;SDS011;46977;50.936;6.908;2023-10-13T05:27:51;9.93;;;5.97;;
61096;SDS011;46977;50.936;6.908;2023-10-13T05:31:36;11.20;;;5.82;;
61096;SDS011;46977;50.936;6.908;2023-10-13T05:34:58;9.40;;;6.05;;
61096;SDS011;46977;50.936;6.908;2023-10-13T05:38:20;9.20;;;5.82;;
61096;SDS011;46977;50.936;6.908;2023-10-13T05:41:40;9.32;;;5.85;;
61096;SDS011;46977;50.936;6.908;2023-10-13T05:45:01;9.43;;;5.38;;
61096;SDS011;46977;50.936;6.908;2023-10-13T05:48:21;9.73;;;6.18;;
61096;SDS011;46977;50.936;6.908;2023-10-13T05:51:44;10.25;;;5.93;;
61096;SDS011;46977;50.936;6.908;2023-10-13T05:55:01;13.95;;;5.30;;
61096;SDS011;46977;50.936;6.908;2023-10-13T05:58:22;8.75;;;5.30;;
61096;SDS011;46977;50.936;6.908;2023-10-13T06:01:43;7.93;;;4.95;;
61096;SDS011;46977;50.936;6.908;2023-10-13T06:05:04;8.57;;;5.70;;
61096;SDS011;46977;50.936;6.908;2023-10-13T06:08:26;11.82;;;5.65;;
61096;SDS011;46977;50.936;6.908;2023-10-13T06:11:49;10.77;;;5.30;;
61096;SDS011;46977;50.936;6.908;2023-10-13T06:15:09;9.68;;;4.72;;
61096;SDS011;46977;50.936;6.908;2023-10-13T06:18:30;7.10;;;4.93;;
61096;SDS011;46977;50.936;6.908;2023-10-13T06:21:56;6.60;;;4.85;;
61096;SDS011;46977;50.936;6.908;2023-10-13T06:25:17;7.50;;;4.50;;
61096;SDS011;46977;50.936;6.908;2023-10-13T06:28:42;8.98;;;4.63;;
61096;SDS011;46977;50.936;6.908;2023-10-13T06:31:47;8.25;;;5.35;;
61096;SDS011;46977;50.936;6.908;2023-10-13T06:34:51;9.57;;;4.55;;
61096;SDS011;46977;50.936;6.908;2023-10-13T06:37:59;8.95;;;4.90;;
61096;SDS011;46977;50.936;6.908;2023-10-13T06:41:05;8.18;;;5.47;;
61096;SDS011;46977;50.936;6.908;2023-10-13T06:44:09;9.60;;;4.85;;
61096;SDS011;46977;50.936;6.908;2023-10-13T06:47:17;5.32;;;4.78;;
61096;SDS011;46977;50.936;6.908;2023-10-13T06:50:22;6.93;;;4.72;;
61096;SDS011;46977;50.936;6.908;2023-10-13T06:53:27;7.13;;;5.00;;
61096;SDS011;46977;50.936;6.908;2023-10-13T06:56:31;7.03;;;4.70;;
61096;SDS011;46977;50.936;6.908;2023-10-13T06:59:35;8.65;;;4.72;;
61096;SDS011;46977;50.936;6.908;2023-10-13T07:02:38;12.13;;;5.05;;
61096;SDS011;46977;50.936;6.908;2023-10-13T07:05:41;9.32;;;4.22;;
61096;SDS011;46977;50.936;6.908;2023-10-13T07:08:47;11.18;;;4.28;;
61096;SDS011;46977;50.936;6.908;2023-10-13T07:11:58;8.68;;;3.97;;
61096;SDS011;46977;50.936;6.908;2023-10-13T07:15:04;7.55;;;4.40;;
61096;SDS011;46977;50.936;6.908;2023-10-13T07:18:27;7.88;;;3.70;;
61096;SDS011;46977;50.936;6.908;2023-10-13T07:24:47;6.32;;;3.05;;
61096;SDS011;46977;50.936;6.908;2023-10-13T07:27:50;7.00;;;3.20;;
61096;SDS011;46977;50.936;6.908;2023-10-13T07:30:57;8.93;;;3.53;;
61096;SDS011;46977;50.936;6.908;2023-10-13T07:34:02;9.32;;;3.85;;
61096;SDS011;46977;50.936;6.908;2023-10-13T07:37:14;8.57;;;3.88;;
61096;SDS011;46977;50.936;6.908;2023-10-13T07:40:18;9.05;;;3.47;;
61096;SDS011;46977;50.936;6.908;2023-10-13T07:43:44;9.18;;;3.75;;
61096;SDS011;46977;50.936;6.908;2023-10-13T07:46:54;9.90;;;3.55;;
61096;SDS011;46977;50.936;6.908;2023-10-13T07:50:04;9.02;;;3.50;;
61096;SDS011;46977;50.936;6.908;2023-10-13T07:53:08;10.13;;;4.15;;
61096;SDS011;46977;50.936;6.908;2023-10-13T07:56:37;12.15;;;4.20;;
61096;SDS011;46977;50.936;6.908;2023-10-13T07:59:41;6.80;;;3.75;;
61096;SDS011;46977;50.936;6.908;2023-10-13T08:02:59;14.15;;;3.90;;
61096;SDS011;46977;50.936;6.908;2023-10-13T08:06:17;5.47;;;3.55;;
61096;SDS011;46977;50.936;6.908;2023-10-13T08:09:22;7.80;;;3.60;;
61096;SDS011;46977;50.936;6.908;2023-10-13T08:12:42;12.18;;;3.75;;
61096;SDS011;46977;50.936;6.908;2023-10-13T08:15:46;8.75;;;3.50;;
61096;SDS011;46977;50.936;6.908;2023-10-13T08:18:56;8.45;;;3.08;;
61096;SDS011;46977;50.936;6.908;2023-10-13T08:21:59;5.78;;;3.20;;
61096;SDS011;46977;50.936;6.908;2023-10-13T08:25:22;7.32;;;2.75;;
61096;SDS011;46977;50.936;6.908;2023-10-13T08:28:47;8.73;;;3.03;;
61096;SDS011;46977;50.936;6.908;2023-10-13T08:31:59;7.57;;;3.67;;
61096;SDS011;46977;50.936;6.908;2023-10-13T08:35:09;6.80;;;3.17;;
61096;SDS011;46977;50.936;6.908;2023-10-13T08:38:12;9.30;;;3.35;;
61096;SDS011;46977;50.936;6.908;2023-10-13T08:41:32;9.25;;;2.90;;
61096;SDS011;46977;50.936;6.908;2023-10-13T08:44:55;10.90;;;3.30;;
61096;SDS011;46977;50.936;6.908;2023-10-13T08:47:58;6.82;;;2.90;;
61096;SDS011;46977;50.936;6.908;2023-10-13T08:51:23;9.10;;;3.42;;
61096;SDS011;46977;50.936;6.908;2023-10-13T08:54:45;5.50;;;3.20;;
61096;SDS011;46977;50.936;6.908;2023-10-13T08:57:51;5.63;;;2.95;;
61096;SDS011;46977;50.936;6.908;2023-10-13T09:00:55;12.43;;;3.47;;
61096;SDS011;46977;50.936;6.908;2023-10-13T09:04:16;9.63;;;3.40;;
61096;SDS011;46977;50.936;6.908;2023-10-13T09:07:24;6.25;;;3.50;;
61096;SDS011;46977;50.936;6.908;2023-10-13T09:10:27;6.63;;;3.80;;
61096;SDS011;46977;50.936;6.908;2023-10-13T09:13:36;7.50;;;3.58;;
61096;SDS011;46977;50.936;6.908;2023-10-13T09:16:49;5.38;;;2.65;;
61096;SDS011;46977;50.936;6.908;2023-10-13T09:19:53;33.40;;;6.63;;
61096;SDS011;46977;50.936;6.908;2023-10-13T09:23:07;12.85;;;3.38;;
61096;SDS011;46977;50.936;6.908;2023-10-13T09:26:11;4.80;;;3.08;;
61096;SDS011;46977;50.936;6.908;2023-10-13T09:29:18;10.50;;;3.20;;
61096;SDS011;46977;50.936;6.908;2023-10-13T09:32:21;5.50;;;3.17;;
61096;SDS011;46977;50.936;6.908;2023-10-13T09:35:23;9.80;;;3.28;;
61096;SDS011;46977;50.936;6.908;2023-10-13T09:38:33;5.50;;;3.20;;
61096;SDS011;46977;50.936;6.908;2023-10-13T09:41:36;5.40;;;2.92;;
61096;SDS011;46977;50.936;6.908;2023-10-13T09:44:39;7.88;;;3.50;;
61096;SDS011;46977;50.936;6.908;2023-10-13T09:47:44;6.45;;;2.72;;
61096;SDS011;46977;50.936;6.908;2023-10-13T09:50:50;4.93;;;2.90;;
61096;SDS011;46977;50.936;6.908;2023-10-13T09:53:55;7.03;;;3.80;;
61096;SDS011;46977;50.936;6.908;2023-10-13T09:57:22;8.07;;;3.38;;
61096;SDS011;46977;50.936;6.908;2023-10-13T10:00:27;7.68;;;3.67;;
61096;SDS011;46977;50.936;6.908;2023-10-13T10:03:46;6.03;;;3.63;;
61096;SDS011;46977;50.936;6.908;2023-10-13T10:07:07;8.32;;;3.58;;
61096;SDS011;46977;50.936;6.908;2023-10-13T10:10:12;7.30;;;4.47;;
61096;SDS011;46977;50.936;6.908;2023-10-13T10:13:15;6.32;;;3.72;;
61096;SDS011;46977;50.936;6.908;2023-10-13T10:16:29;8.90;;;3.92;;
61096;SDS011;46977;50.936;6.908;2023-10-13T10:19:50;11.20;;;4.40;;
61096;SDS011;46977;50.936;6.908;2023-10-13T10:22:58;10.77;;;3.83;;
61096;SDS011;46977;50.936;6.908;2023-10-13T10:26:10;8.32;;;3.63;;
61096;SDS011;46977;50.936;6.908;2023-10-13T10:29:16;9.00;;;3.42;;
61096;SDS011;46977;50.936;6.908;2023-10-13T10:32:18;7.38;;;3.70;;
61096;SDS011;46977;50.936;6.908;2023-10-13T10:35:22;6.13;;;3.50;;
61096;SDS011;46977;50.936;6.908;2023-10-13T10:38:25;6.88;;;3.50;;
61096;SDS011;46977;50.936;6.908;2023-10-13T10:41:32;5.47;;;3.55;;
61096;SDS011;46977;50.936;6.908;2023-10-13T10:44:46;4.68;;;3.95;;
61096;SDS011;46977;50.936;6.908;2023-10-13T10:47:49;5.28;;;4.18;;
61096;SDS011;46977;50.936;6.908;2023-10-13T10:50:54;5.85;;;3.92;;
61096;SDS011;46977;50.936;6.908;2023-10-13T10:53:57;7.10;;;4.00;;
61096;SDS011;46977;50.936;6.908;2023-10-13T10:57:01;9.05;;;4.13;;
61096;SDS011;46977;50.936;6.908;2023-10-13T11:00:30;8.23;;;4.47;;
61096;SDS011;46977;50.936;6.908;2023-10-13T11:04:00;9.27;;;4.30;;
61096;SDS011;46977;50.936;6.908;2023-10-13T11:07:23;6.90;;;4.53;;
61096;SDS011;46977;50.936;6.908;2023-10-13T11:10:26;7.65;;;4.05;;
61096;SDS011;46977;50.936;6.908;2023-10-13T11:13:40;9.88;;;4.30;;
61096;SDS011;46977;50.936;6.908;2023-10-13T11:16:50;7.80;;;4.78;;
61096;SDS011;46977;50.936;6.908;2023-10-13T11:19:53;6.40;;;3.90;;
61096;SDS011;46977;50.936;6.908;2023-10-13T11:22:55;8.75;;;3.50;;
61096;SDS011;46977;50.936;6.908;2023-10-13T11:25:58;10.32;;;3.95;;
61096;SDS011;46977;50.936;6.908;2023-10-13T11:29:06;8.65;;;4.38;;
61096;SDS011;46977;50.936;6.908;2023-10-13T11:32:12;9.27;;;4.10;;
61096;SDS011;46977;50.936;6.908;2023-10-13T11:35:21;8.40;;;3.72;;
61096;SDS011;46977;50.936;6.908;2023-10-13T11:38:27;6.05;;;3.78;;
61096;SDS011;46977;50.936;6.908;2023-10-13T11:41:43;7.03;;;3.75;;
61096;SDS011;46977;50.936;6.908;2023-10-13T11:44:54;14.77;;;4.30;;
61096;SDS011;46977;50.936;6.908;2023-10-13T11:48:11;13.65;;;3.35;;
61096;SDS011;46977;50.936;6.908;2023-10-13T11:51:16;8.02;;;3.80;;
61096;SDS011;46977;50.936;6.908;2023-10-13T11:54:28;6.38;;;3.42;;
61096;SDS011;46977;50.936;6.908;2023-10-13T11:57:30;7.68;;;3.63;;
61096;SDS011;46977;50.936;6.908;2023-10-13T12:00:34;8.50;;;3.80;;
61096;SDS011;46977;50.936;6.908;2023-10-13T12:03:54;6.78;;;2.95;;
61096;SDS011;46977;50.936;6.908;2023-10-13T12:07:20;11.13;;;3.38;;
61096;SDS011;46977;50.936;6.908;2023-10-13T12:10:29;10.82;;;3.85;;
61096;SDS011;46977;50.936;6.908;2023-10-13T12:13:51;9.73;;;3.83;;
61096;SDS011;46977;50.936;6.908;2023-10-13T12:16:55;5.65;;;3.20;;
61096;SDS011;46977;50.936;6.908;2023-10-13T12:19:58;8.32;;;3.90;;
61096;SDS011;46977;50.936;6.908;2023-10-13T12:23:06;6.03;;;3.03;;
61096;SDS011;46977;50.936;6.908;2023-10-13T12:26:17;5.05;;;3.25;;
61096;SDS011;46977;50.936;6.908;2023-10-13T12:29:25;8.80;;;4.68;;
61096;SDS011;46977;50.936;6.908;2023-10-13T12:32:32;8.02;;;3.60;;
61096;SDS011;46977;50.936;6.908;2023-10-13T12:35:36;10.52;;;3.75;;
61096;SDS011;46977;50.936;6.908;2023-10-13T12:39:05;7.72;;;3.33;;
61096;SDS011;46977;50.936;6.908;2023-10-13T12:42:10;8.75;;;3.47;;
61096;SDS011;46977;50.936;6.908;2023-10-13T12:45:31;7.25;;;3.67;;
61096;SDS011;46977;50.936;6.908;2023-10-13T12:48:53;9.85;;;3.80;;
61096;SDS011;46977;50.936;6.908;2023-10-13T12:52:16;4.97;;;3.08;;
61096;SDS011;46977;50.936;6.908;2023-10-13T12:55:21;7.88;;;3.30;;
61096;SDS011;46977;50.936;6.908;2023-10-13T12:58:27;7.80;;;3.38;;
61096;SDS011;46977;50.936;6.908;2023-10-13T13:01:29;7.00;;;3.25;;
61096;SDS011;46977;50.936;6.908;2023-10-13T13:04:36;6.35;;;2.92;;
61096;SDS011;46977;50.936;6.908;2023-10-13T13:07:39;9.20;;;2.72;;
61096;SDS011;46977;50.936;6.908;2023-10-13T13:10:48;10.88;;;4.07;;
61096;SDS011;46977;50.936;6.908;2023-10-13T13:13:53;8.63;;;3.50;;
61096;SDS011;46977;50.936;6.908;2023-10-13T13:16:56;11.15;;;4.20;;
61096;SDS011;46977;50.936;6.908;2023-10-13T13:20:09;9.05;;;3.05;;
61096;SDS011;46977;50.936;6.908;2023-10-13T13:23:29;12.27;;;4.03;;
61096;SDS011;46977;50.936;6.908;2023-10-13T13:26:33;7.28;;;3.85;;
61096;SDS011;46977;50.936;6.908;2023-10-13T13:29:35;9.32;;;2.85;;
61096;SDS011;46977;50.936;6.908;2023-10-13T13:32:39;6.07;;;3.22;;
61096;SDS011;46977;50.936;6.908;2023-10-13T13:35:49;11.25;;;3.58;;
61096;SDS011;46977;50.936;6.908;2023-10-13T13:38:54;15.23;;;3.40;;
61096;SDS011;46977;50.936;6.908;2023-10-13T13:42:02;7.55;;;2.90;;
61096;SDS011;46977;50.936;6.908;2023-10-13T13:45:05;13.00;;;3.47;;
61096;SDS011;46977;50.936;6.908;2023-10-13T13:48:10;13.85;;;4.03;;
61096;SDS011;46977;50.936;6.908;2023-10-13T13:51:20;10.88;;;3.70;;
61096;SDS011;46977;50.936;6.908;2023-10-13T13:54:29;10.43;;;3.70;;
61096;SDS011;46977;50.936;6.908;2023-10-13T13:57:31;11.25;;;3.65;;
61096;SDS011;46977;50.936;6.908;2023-10-13T14:00:34;10.75;;;3.85;;
61096;SDS011;46977;50.936;6.908;2023-10-13T14:03:40;10.98;;;3.30;;
61096;SDS011;46977;50.936;6.908;2023-10-13T14:06:51;7.20;;;3.25;;
61096;SDS011;46977;50.936;6.908;2023-10-13T14:09:53;9.63;;;2.83;;
61096;SDS011;46977;50.936;6.908;2023-10-13T14:13:07;14.35;;;4.22;;
61096;SDS011;46977;50.936;6.908;2023-10-13T14:16:15;9.30;;;2.72;;
61096;SDS011;46977;50.936;6.908;2023-10-13T14:19:21;7.00;;;3.42;;
61096;SDS011;46977;50.936;6.908;2023-10-13T14:22:30;7.32;;;3.17;;
61096;SDS011;46977;50.936;6.908;2023-10-13T14:25:39;9.32;;;2.63;;
61096;SDS011;46977;50.936;6.908;2023-10-13T14:28:46;8.93;;;3.17;;
61096;SDS011;46977;50.936;6.908;2023-10-13T14:31:56;7.85;;;2.80;;
61096;SDS011;46977;50.936;6.908;2023-10-13T14:34:58;8.30;;;2.88;;
61096;SDS011;46977;50.936;6.908;2023-10-13T14:38:03;9.10;;;2.85;;
61096;SDS011;46977;50.936;6.908;2023-10-13T14:41:06;10.48;;;3.25;;
61096;SDS011;46977;50.936;6.908;2023-10-13T14:44:08;7.40;;;3.28;;
61096;SDS011;46977;50.936;6.908;2023-10-13T14:47:14;8.65;;;4.18;;
61096;SDS011;46977;50.936;6.908;2023-10-13T14:50:17;8.93;;;2.95;;
61096;SDS011;46977;50.936;6.908;2023-10-13T14:53:23;7.07;;;3.20;;
61096;SDS011;46977;50.936;6.908;2023-10-13T14:56:26;8.63;;;2.80;;
61096;SDS011;46977;50.936;6.908;2023-10-13T14:59:29;8.32;;;3.53;;
61096;SDS011;46977;50.936;6.908;2023-10-13T15:02:36;8.95;;;2.83;;
61096;SDS011;46977;50.936;6.908;2023-10-13T15:05:39;7.30;;;2.50;;
61096;SDS011;46977;50.936;6.908;2023-10-13T15:08:42;6.65;;;2.67;;
61096;SDS011;46977;50.936;6.908;2023-10-13T15:11:47;8.25;;;4.18;;
61096;SDS011;46977;50.936;6.908;2023-10-13T15:14:51;6.97;;;2.95;;
61096;SDS011;46977;50.936;6.908;2023-10-13T15:17:55;6.30;;;2.50;;
61096;SDS011;46977;50.936;6.908;2023-10-13T15:20:58;3.97;;;2.50;;
61096;SDS011;46977;50.936;6.908;2023-10-13T15:24:01;5.88;;;2.38;;
61096;SDS011;46977;50.936;6.908;2023-10-13T15:27:32;6.47;;;2.38;;
61096;SDS011;46977;50.936;6.908;2023-10-13T15:30:42;7.65;;;2.45;;
61096;SDS011;46977;50.936;6.908;2023-10-13T15:33:49;5.82;;;2.28;;
61096;SDS011;46977;50.936;6.908;2023-10-13T15:36:54;6.40;;;2.70;;
61096;SDS011;46977;50.936;6.908;2023-10-13T15:39:58;5.65;;;2.72;;
61096;SDS011;46977;50.936;6.908;2023-10-13T15:43:02;7.13;;;3.22;;
61096;SDS011;46977;50.936;6.908;2023-10-13T15:46:08;6.32;;;2.47;;
61096;SDS011;46977;50.936;6.908;2023-10-13T15:49:37;5.18;;;2.50;;
61096;SDS011;46977;50.936;6.908;2023-10-13T15:52:43;7.25;;;3.50;;
61096;SDS011;46977;50.936;6.908;2023-10-13T15:55:50;4.70;;;2.72;;
61096;SDS011;46977;50.936;6.908;2023-10-13T15:58:52;4.45;;;2.88;;
61096;SDS011;46977;50.936;6.908;2023-10-13T16:01:54;5.97;;;3.08;;
61096;SDS011;46977;50.936;6.908;2023-10-13T16:05:00;4.78;;;3.17;;
61096;SDS011;46977;50.936;6.908;2023-10-13T16:08:04;6.85;;;2.63;;
61096;SDS011;46977;50.936;6.908;2023-10-13T16:11:14;6.40;;;2.63;;
61096;SDS011;46977;50.936;6.908;2023-10-13T16:14:19;6.32;;;2.97;;
61096;SDS011;46977;50.936;6.908;2023-10-13T16:17:23;6.63;;;2.78;;
61096;SDS011;46977;50.936;6.908;2023-10-13T16:20:25;5.30;;;2.95;;
61096;SDS011;46977;50.936;6.908;2023-10-13T16:23:29;5.65;;;2.67;;
61096;SDS011;46977;50.936;6.908;2023-10-13T16:26:34;6.50;;;2.50;;
61096;SDS011;46977;50.936;6.908;2023-10-13T16:29:37;6.68;;;3.03;;
61096;SDS011;46977;50.936;6.908;2023-10-13T16:32:44;8.00;;;3.60;;
61096;SDS011;46977;50.936;6.908;2023-10-13T16:35:48;6.90;;;3.05;;
61096;SDS011;46977;50.936;6.908;2023-10-13T16:38:54;8.52;;;2.60;;
61096;SDS011;46977;50.936;6.908;2023-10-13T16:42:01;10.65;;;3.03;;
61096;SDS011;46977;50.936;6.908;2023-10-13T16:45:09;5.80;;;2.70;;
61096;SDS011;46977;50.936;6.908;2023-10-13T16:48:22;5.10;;;2.47;;
61096;SDS011;46977;50.936;6.908;2023-10-13T16:51:26;4.60;;;2.47;;
61096;SDS011;46977;50.936;6.908;2023-10-13T16:54:31;7.85;;;3.60;;
61096;SDS011;46977;50.936;6.908;2023-10-13T16:57:34;7.90;;;3.13;;
61096;SDS011;46977;50.936;6.908;2023-10-13T17:00:38;4.65;;;2.65;;
61096;SDS011;46977;50.936;6.908;2023-10-13T17:03:41;5.25;;;2.83;;
61096;SDS011;46977;50.936;6.908;2023-10-13T17:06:47;4.80;;;2.33;;
61096;SDS011;46977;50.936;6.908;2023-10-13T17:09:50;6.85;;;2.92;;
61096;SDS011;46977;50.936;6.908;2023-10-13T17:12:53;5.22;;;3.22;;
61096;SDS011;46977;50.936;6.908;2023-10-13T17:15:56;5.30;;;2.47;;
61096;SDS011;46977;50.936;6.908;2023-10-13T17:19:01;5.40;;;3.00;;
61096;SDS011;46977;50.936;6.908;2023-10-13T17:22:04;7.15;;;3.58;;
61096;SDS011;46977;50.936;6.908;2023-10-13T17:25:06;6.70;;;4.50;;
61096;SDS011;46977;50.936;6.908;2023-10-13T17:28:11;7.13;;;3.65;;
61096;SDS011;46977;50.936;6.908;2023-10-13T17:31:16;11.20;;;3.67;;
61096;SDS011;46977;50.936;6.908;2023-10-13T17:34:18;6.90;;;3.15;;
61096;SDS011;46977;50.936;6.908;2023-10-13T17:37:24;5.00;;;3.55;;
61096;SDS011;46977;50.936;6.908;2023-10-13T17:40:26;5.15;;;3.60;;
61096;SDS011;46977;50.936;6.908;2023-10-13T17:43:30;7.95;;;3.65;;
61096;SDS011;46977;50.936;6.908;2023-10-13T17:46:36;6.20;;;3.17;;
61096;SDS011;46977;50.936;6.908;2023-10-13T17:49:41;4.78;;;3.28;;
61096;SDS011;46977;50.936;6.908;2023-10-13T17:52:44;5.25;;;3.15;;
61096;SDS011;46977;50.936;6.908;2023-10-13T17:55:49;7.55;;;3.60;;
61096;SDS011;46977;50.936;6.908;2023-10-13T17:58:54;7.30;;;3.38;;
61096;SDS011;46977;50.936;6.908;2023-10-13T18:02:01;10.82;;;3.90;;
61096;SDS011;46977;50.936;6.908;2023-10-13T18:05:05;6.70;;;3.47;;
61096;SDS011;46977;50.936;6.908;2023-10-13T18:08:07;4.72;;;3.17;;
61096;SDS011;46977;50.936;6.908;2023-10-13T18:11:11;4.38;;;3.33;;
61096;SDS011;46977;50.936;6.908;2023-10-13T18:14:17;8.27;;;4.13;;
61096;SDS011;46977;50.936;6.908;2023-10-13T18:17:21;4.75;;;3.20;;
61096;SDS011;46977;50.936;6.908;2023-10-13T18:20:26;8.43;;;4.20;;
61096;SDS011;46977;50.936;6.908;2023-10-13T18:23:30;8.23;;;3.47;;
61096;SDS011;46977;50.936;6.908;2023-10-13T18:26:32;8.45;;;3.40;;
61096;SDS011;46977;50.936;6.908;2023-10-13T18:29:36;8.75;;;3.28;;
61096;SDS011;46977;50.936;6.908;2023-10-13T18:32:41;5.65;;;3.95;;
61096;SDS011;46977;50.936;6.908;2023-10-13T18:35:44;4.63;;;2.38;;
61096;SDS011;46977;50.936;6.908;2023-10-13T18:38:48;5.07;;;2.95;;
61096;SDS011;46977;50.936;6.908;2023-10-13T18:41:53;7.13;;;3.40;;
61096;SDS011;46977;50.936;6.908;2023-10-13T18:44:57;3.80;;;3.08;;
61096;SDS011;46977;50.936;6.908;2023-10-13T18:47:59;5.80;;;2.83;;
61096;SDS011;46977;50.936;6.908;2023-10-13T18:51:04;5.63;;;3.15;;
61096;SDS011;46977;50.936;6.908;2023-10-13T18:54:08;5.38;;;2.88;;
61096;SDS011;46977;50.936;6.908;2023-10-13T18:57:10;4.30;;;3.65;;
61096;SDS011;46977;50.936;6.908;2023-10-13T19:00:17;5.88;;;3.20;;
61096;SDS011;46977;50.936;6.908;2023-10-13T19:03:24;10.68;;;3.40;;
61096;SDS011;46977;50.936;6.908;2023-10-13T19:06:29;4.07;;;2.88;;